createdAt,value
2023-03-31T00:00:12.027Z,9.20
2023-03-31T00:04:15.039Z,9.30
2023-03-31T00:08:19.421Z,9.40
2023-03-31T00:12:22.864Z,9.40
2023-03-31T00:16:25.793Z,9.30
2023-03-31T00:20:28.676Z,9.30
2023-03-31T00:24:33.628Z,9.30
2023-03-31T00:28:36.436Z,9.40
2023-03-31T00:32:39.364Z,9.30
2023-03-31T00:36:47.221Z,9.30
2023-03-31T00:40:53.825Z,9.20
2023-03-31T00:45:33.033Z,9.30
2023-03-31T00:49:40.329Z,9.40
2023-03-31T00:53:43.684Z,9.30
2023-03-31T00:57:48.504Z,9.30
2023-03-31T01:01:52.816Z,9.40
2023-03-31T01:05:58.707Z,9.30
2023-03-31T01:10:05.109Z,9.30
2023-03-31T01:14:10.516Z,9.40
2023-03-31T01:18:16.307Z,9.50
2023-03-31T01:22:41.185Z,9.40
2023-03-31T01:27:02.586Z,9.50
2023-03-31T01:31:57.165Z,9.40
2023-03-31T01:36:21.194Z,9.40
2023-03-31T01:40:45.902Z,9.30
2023-03-31T01:44:57.050Z,9.10
2023-03-31T01:49:08.910Z,9.20
2023-03-31T01:53:19.439Z,9.30
2023-03-31T01:57:33.009Z,9.30
2023-03-31T02:01:42.344Z,9.40
2023-03-31T02:05:50.270Z,9.40
2023-03-31T02:09:58.468Z,9.50
2023-03-31T02:14:04.733Z,9.40
2023-03-31T02:18:12.022Z,9.40
2023-03-31T02:22:19.639Z,9.50
2023-03-31T02:26:27.423Z,9.60
2023-03-31T02:30:39.940Z,9.50
2023-03-31T02:34:43.288Z,9.60
2023-03-31T02:38:51.257Z,9.60
2023-03-31T02:42:54.284Z,9.50
2023-03-31T02:46:58.427Z,9.60
2023-03-31T02:51:36.889Z,9.60
2023-03-31T02:55:58.692Z,9.60
2023-03-31T03:00:10.234Z,9.60
2023-03-31T03:04:37.415Z,9.60
2023-03-31T03:08:55.589Z,9.70
2023-03-31T03:13:07.510Z,9.70
2023-03-31T03:17:13.441Z,9.80
2023-03-31T03:21:17.582Z,9.90
2023-03-31T03:25:20.828Z,10.00
2023-03-31T03:29:23.766Z,9.90
2023-03-31T03:33:26.528Z,9.90
2023-03-31T03:37:30.892Z,9.80
2023-03-31T03:41:33.973Z,10.00
2023-03-31T03:45:36.771Z,10.00
2023-03-31T03:49:39.576Z,9.90
2023-03-31T03:53:43.836Z,10.00
2023-03-31T03:57:46.622Z,10.00
2023-03-31T04:01:49.514Z,10.00
2023-03-31T04:05:52.399Z,10.00
2023-03-31T04:09:56.520Z,9.90
2023-03-31T04:13:59.286Z,9.80
2023-03-31T04:18:02.161Z,9.70
2023-03-31T04:22:05.009Z,9.70
2023-03-31T04:26:09.611Z,9.70
2023-03-31T04:30:14.011Z,9.70
2023-03-31T04:34:16.869Z,9.70
2023-03-31T04:38:21.014Z,9.80
2023-03-31T04:42:25.178Z,9.80
2023-03-31T04:46:28.081Z,9.80
2023-03-31T04:50:31.295Z,9.70
2023-03-31T04:54:34.146Z,9.50
2023-03-31T04:58:38.284Z,9.40
2023-03-31T05:02:41.197Z,9.60
2023-03-31T05:06:44.033Z,9.50
2023-03-31T05:10:46.809Z,9.40
2023-03-31T05:14:50.955Z,9.30
2023-03-31T05:18:53.803Z,9.40
2023-03-31T05:22:56.806Z,9.40
2023-03-31T05:26:59.618Z,9.50
2023-03-31T05:31:05.009Z,9.50
2023-03-31T05:35:08.510Z,9.40
2023-03-31T05:39:11.470Z,9.40
2023-03-31T05:43:14.303Z,9.40
2023-03-31T05:47:19.103Z,9.30
2023-03-31T05:51:22.150Z,9.40
2023-03-31T05:55:24.963Z,9.40
2023-03-31T05:59:28.111Z,9.60
2023-03-31T06:03:32.494Z,9.60
2023-03-31T06:07:35.831Z,9.70
2023-03-31T06:11:38.822Z,9.70
2023-03-31T06:15:42.109Z,9.80
2023-03-31T06:19:46.294Z,9.80
2023-03-31T06:23:49.355Z,9.80
2023-03-31T06:27:52.151Z,9.80
2023-03-31T06:31:54.990Z,10.00
2023-03-31T06:36:01.609Z,10.00
2023-03-31T06:40:05.140Z,10.00
2023-03-31T06:44:07.937Z,10.10
2023-03-31T06:48:10.857Z,10.10
2023-03-31T06:52:15.376Z,10.00
2023-03-31T06:56:18.160Z,10.10
2023-03-31T07:00:23.145Z,10.00
2023-03-31T07:04:26.469Z,10.00
2023-03-31T07:08:30.627Z,9.80
2023-03-31T07:12:37.490Z,9.60
2023-03-31T07:16:40.409Z,9.70
2023-03-31T07:20:43.679Z,9.90
2023-03-31T07:24:47.838Z,9.90
2023-03-31T07:28:51.847Z,10.00
2023-03-31T07:32:55.564Z,9.90
2023-03-31T07:36:59.350Z,9.70
2023-03-31T07:41:09.264Z,9.90
2023-03-31T07:45:13.190Z,10.00
2023-03-31T07:49:16.329Z,10.00
2023-03-31T07:53:19.122Z,10.10
2023-03-31T07:57:23.437Z,10.20
2023-03-31T08:01:29.007Z,10.40
2023-03-31T08:05:32.133Z,10.90
2023-03-31T08:09:35.080Z,11.00
2023-03-31T08:13:39.260Z,10.80
2023-03-31T08:17:42.091Z,10.70
2023-03-31T08:21:44.934Z,10.70
2023-03-31T08:25:47.911Z,10.70
2023-03-31T08:29:52.067Z,10.80
2023-03-31T08:33:54.917Z,10.80
2023-03-31T08:37:57.745Z,10.80
2023-03-31T08:42:03.883Z,11.00
2023-03-31T08:46:12.011Z,11.00
2023-03-31T08:50:17.854Z,11.10
2023-03-31T08:54:27.451Z,11.20
2023-03-31T08:58:37.848Z,11.20
2023-03-31T09:02:49.566Z,11.50
2023-03-31T09:06:59.849Z,11.50
2023-03-31T09:11:13.140Z,11.50
2023-03-31T09:15:25.920Z,11.80
2023-03-31T09:19:37.539Z,12.80
2023-03-31T09:23:45.854Z,15.50
2023-03-31T09:27:50.464Z,17.50
2023-03-31T09:31:54.215Z,19.00
2023-03-31T09:35:58.680Z,17.20
2023-03-31T09:40:07.618Z,17.90
2023-03-31T09:44:23.308Z,20.20
2023-03-31T09:48:29.543Z,21.10
2023-03-31T09:52:36.053Z,22.20
2023-03-31T09:56:52.827Z,23.10
2023-03-31T10:01:02.429Z,20.40
2023-03-31T10:05:06.878Z,21.60
2023-03-31T10:09:12.415Z,22.20
2023-03-31T10:13:18.675Z,23.70
2023-03-31T10:17:23.308Z,20.90
2023-03-31T10:21:28.050Z,19.90
2023-03-31T10:25:34.384Z,19.20
2023-03-31T10:29:37.335Z,18.80
2023-03-31T10:33:45.240Z,18.80
2023-03-31T10:37:50.973Z,18.70
2023-03-31T10:41:55.223Z,18.70
2023-03-31T10:46:00.528Z,18.80
2023-03-31T10:50:06.238Z,18.20
2023-03-31T10:54:10.065Z,18.00
2023-03-31T10:58:25.880Z,17.50
2023-03-31T11:02:53.380Z,17.00
2023-03-31T11:07:01.862Z,16.50
2023-03-31T11:11:23.127Z,16.20
2023-03-31T11:15:34.972Z,15.40
2023-03-31T11:19:52.110Z,14.70
2023-03-31T11:24:10.392Z,14.20
2023-03-31T11:28:46.347Z,14.10
2023-03-31T11:33:01.644Z,14.10
2023-03-31T11:37:19.556Z,14.30
2023-03-31T11:41:35.882Z,14.60
2023-03-31T11:45:42.396Z,15.20
2023-03-31T11:49:52.156Z,15.70
2023-03-31T11:53:58.085Z,17.20
2023-03-31T11:58:03.405Z,18.50
2023-03-31T12:02:16.430Z,18.40
2023-03-31T12:06:24.480Z,17.70
2023-03-31T12:10:35.433Z,17.00
2023-03-31T12:14:42.721Z,17.10
2023-03-31T12:18:56.999Z,16.80
2023-03-31T12:23:04.753Z,17.80
2023-03-31T12:27:15.198Z,19.90
2023-03-31T12:31:22.483Z,18.80
2023-03-31T12:35:28.998Z,17.20
2023-03-31T12:39:39.699Z,16.70
2023-03-31T12:44:18.740Z,16.30
2023-03-31T12:48:40.500Z,16.00
2023-03-31T12:52:51.747Z,16.00
2023-03-31T12:57:17.294Z,15.80
2023-03-31T13:01:22.029Z,15.40
2023-03-31T13:05:50.977Z,15.20
2023-03-31T13:09:57.516Z,14.80
2023-03-31T13:14:02.847Z,14.50
2023-03-31T13:18:07.705Z,14.00
2023-03-31T13:22:30.288Z,15.40
2023-03-31T13:26:47.882Z,17.30
2023-03-31T13:31:03.151Z,17.70
2023-03-31T13:35:15.028Z,17.40
2023-03-31T13:39:56.610Z,18.00
2023-03-31T13:44:29.466Z,18.50
2023-03-31T13:48:56.767Z,18.20
2023-03-31T13:53:07.711Z,17.40
2023-03-31T13:57:29.207Z,17.70
2023-03-31T14:01:49.944Z,17.90
2023-03-31T14:05:58.302Z,17.30
2023-03-31T14:10:02.901Z,17.00
2023-03-31T14:14:14.468Z,16.80
2023-03-31T14:18:23.478Z,16.30
2023-03-31T14:22:36.954Z,16.00
2023-03-31T14:26:52.512Z,15.70
2023-03-31T14:31:13.315Z,15.30
2023-03-31T14:35:32.497Z,14.20
2023-03-31T14:39:41.140Z,13.70
2023-03-31T14:43:49.804Z,13.50
2023-03-31T14:47:57.407Z,13.20
2023-03-31T14:52:03.334Z,13.20
2023-03-31T14:56:11.121Z,13.30
2023-03-31T15:00:17.938Z,13.40
2023-03-31T15:04:28.791Z,14.00
2023-03-31T15:08:42.549Z,14.20
2023-03-31T15:12:47.640Z,14.10
2023-03-31T15:16:51.622Z,14.10
2023-03-31T15:20:54.587Z,14.10
2023-03-31T15:24:58.636Z,14.30
2023-03-31T15:29:07.171Z,14.20
2023-03-31T15:37:43.208Z,14.20
2023-03-31T15:41:48.326Z,14.20
2023-03-31T15:45:53.718Z,14.20
2023-03-31T15:49:59.476Z,14.10
2023-03-31T15:54:02.536Z,14.20
2023-03-31T15:58:05.478Z,14.10
2023-03-31T16:02:13.322Z,14.30
2023-03-31T16:06:25.025Z,14.40
2023-03-31T16:10:28.171Z,14.40
2023-03-31T16:14:34.247Z,14.30
2023-03-31T16:18:40.863Z,14.10
2023-03-31T16:22:47.814Z,14.00
2023-03-31T16:26:50.961Z,14.00
2023-03-31T16:30:54.590Z,13.90
2023-03-31T16:35:01.385Z,13.80
2023-03-31T16:39:05.875Z,13.70
2023-03-31T16:43:11.447Z,13.60
2023-03-31T16:47:20.421Z,13.20
2023-03-31T16:51:32.053Z,12.20
2023-03-31T16:55:34.916Z,11.80
2023-03-31T16:59:37.845Z,11.90
2023-03-31T17:03:41.904Z,11.60
2023-03-31T17:07:47.388Z,11.40
2023-03-31T17:11:50.272Z,11.40
2023-03-31T17:16:01.347Z,11.30
2023-03-31T17:20:12.532Z,11.50
2023-03-31T17:24:16.674Z,11.30
2023-03-31T17:28:19.621Z,11.40
2023-03-31T17:32:23.607Z,11.20
2023-03-31T17:36:27.030Z,11.30
2023-03-31T17:40:33.516Z,11.40
2023-03-31T17:44:36.305Z,11.50
2023-03-31T17:48:39.654Z,11.40
2023-03-31T17:52:42.619Z,11.30
2023-03-31T17:56:50.083Z,11.40
2023-03-31T18:00:53.128Z,10.80
2023-03-31T18:04:55.987Z,11.30
2023-03-31T18:08:58.841Z,11.00
2023-03-31T18:13:03.183Z,11.00
2023-03-31T18:17:06.110Z,11.10
2023-03-31T18:21:11.251Z,10.80
2023-03-31T18:25:14.025Z,10.50
2023-03-31T18:29:18.292Z,10.90
2023-03-31T18:33:21.476Z,10.80
2023-03-31T18:37:27.497Z,10.80
2023-03-31T18:41:30.373Z,11.10
2023-03-31T18:45:34.882Z,10.90
2023-03-31T18:49:37.818Z,10.80
2023-03-31T18:53:40.768Z,10.40
2023-03-31T18:57:43.583Z,10.50
2023-03-31T19:01:47.800Z,10.30
2023-03-31T19:05:50.775Z,10.50
2023-03-31T19:09:53.789Z,10.60
2023-03-31T19:13:56.656Z,10.50
2023-03-31T19:18:01.367Z,10.40
2023-03-31T19:22:05.790Z,10.50
2023-03-31T19:26:09.112Z,10.70
2023-03-31T19:30:18.414Z,10.40
2023-03-31T19:34:22.795Z,10.30
2023-03-31T19:38:27.136Z,10.40
2023-03-31T19:42:30.393Z,10.50
2023-03-31T19:46:33.235Z,10.80
2023-03-31T19:50:37.464Z,10.80
2023-03-31T19:54:40.336Z,10.70
2023-03-31T19:58:43.217Z,10.50
2023-03-31T20:02:46.781Z,10.90
2023-03-31T20:06:51.114Z,10.70
2023-03-31T20:10:54.049Z,10.80
2023-03-31T20:14:57.089Z,10.70
2023-03-31T20:19:01.336Z,10.60
2023-03-31T20:23:05.647Z,10.90
2023-03-31T20:27:08.679Z,10.70
2023-03-31T20:31:13.138Z,10.90
2023-03-31T20:35:16.114Z,10.70
2023-03-31T20:39:20.851Z,10.80
2023-03-31T20:43:23.770Z,10.80
2023-03-31T20:47:28.137Z,10.80
2023-03-31T20:51:33.052Z,10.80
2023-03-31T20:55:37.403Z,10.70
2023-03-31T20:59:40.383Z,10.80
2023-03-31T21:03:43.590Z,10.80
2023-03-31T21:07:46.490Z,10.90
2023-03-31T21:11:50.933Z,11.10
2023-03-31T21:15:55.658Z,11.00
2023-03-31T21:19:58.516Z,10.90
2023-03-31T21:24:01.378Z,11.10
2023-03-31T21:28:05.810Z,11.00
2023-03-31T21:32:09.039Z,10.90
2023-03-31T21:36:14.088Z,10.90
2023-03-31T21:40:17.004Z,10.70
2023-03-31T21:44:21.709Z,10.80
2023-03-31T21:48:26.302Z,10.70
2023-03-31T21:52:29.165Z,10.70
2023-03-31T21:56:32.724Z,10.50
2023-03-31T22:00:37.226Z,10.50
2023-03-31T22:04:40.350Z,10.50
2023-03-31T22:08:43.216Z,10.70
2023-03-31T22:12:46.080Z,10.80
2023-03-31T22:16:50.261Z,10.60
2023-03-31T22:20:53.280Z,10.80
2023-03-31T22:24:56.236Z,10.50
2023-03-31T22:28:59.437Z,10.70
2023-03-31T22:33:03.668Z,10.60
2023-03-31T22:37:06.499Z,10.40
2023-03-31T22:41:09.298Z,10.40
2023-03-31T22:45:12.340Z,10.30
2023-03-31T22:49:17.096Z,10.50
2023-03-31T22:53:19.979Z,10.60
2023-03-31T22:57:22.909Z,10.50
2023-03-31T23:01:26.193Z,10.50
2023-03-31T23:05:30.540Z,10.50
2023-03-31T23:09:33.600Z,10.60
2023-03-31T23:13:36.802Z,10.30
2023-03-31T23:17:39.804Z,10.40
2023-03-31T23:21:44.021Z,10.30
2023-03-31T23:25:46.842Z,10.50
2023-03-31T23:29:49.700Z,10.20
2023-03-31T23:33:52.787Z,10.40
2023-03-31T23:37:56.973Z,10.00
2023-03-31T23:41:59.854Z,10.10
2023-03-31T23:46:04.872Z,10.00
2023-03-31T23:50:08.968Z,10.10
2023-03-31T23:54:13.206Z,10.20
2023-03-31T23:58:16.009Z,10.10
